createdAt,value
2018-01-23T00:02:04.819Z,23.70
2018-01-23T00:04:32.363Z,28.83
2018-01-23T00:06:59.958Z,34.05
2018-01-23T00:09:27.592Z,29.00
2018-01-23T00:11:55.253Z,31.65
2018-01-23T00:14:22.785Z,34.72
2018-01-23T00:16:51.121Z,34.67
2018-01-23T00:19:18.631Z,33.58
2018-01-23T00:21:46.939Z,41.67
2018-01-23T00:24:14.487Z,34.70
2018-01-23T00:26:42.137Z,28.70
2018-01-23T00:29:09.699Z,29.60
2018-01-23T00:31:37.234Z,29.10
2018-01-23T00:34:05.502Z,29.52
2018-01-23T00:36:33.044Z,27.27
2018-01-23T00:39:02.084Z,30.55
2018-01-23T00:41:29.635Z,29.45
2018-01-23T00:43:58.029Z,32.58
2018-01-23T00:46:25.595Z,39.60
2018-01-23T00:48:53.112Z,37.50
2018-01-23T00:51:21.627Z,30.65
2018-01-23T00:53:49.258Z,29.02
2018-01-23T00:56:16.803Z,27.05
2018-01-23T00:58:44.305Z,33.53
2018-01-23T01:01:11.866Z,31.17
2018-01-23T01:03:39.370Z,24.87
2018-01-23T01:06:06.958Z,35.70
2018-01-23T01:08:34.463Z,34.75
2018-01-23T01:11:02.105Z,41.10
2018-01-23T01:13:29.608Z,26.40
2018-01-23T01:15:57.142Z,28.45
2018-01-23T01:18:24.750Z,32.55
2018-01-23T01:20:53.115Z,25.05
2018-01-23T01:23:20.715Z,34.10
2018-01-23T01:25:48.263Z,33.00
2018-01-23T01:28:16.553Z,31.58
2018-01-23T01:30:44.132Z,37.65
2018-01-23T01:33:11.689Z,36.92
2018-01-23T01:35:39.207Z,31.85
2018-01-23T01:38:07.499Z,33.35
2018-01-23T01:40:35.818Z,37.78
2018-01-23T01:43:03.330Z,31.37
2018-01-23T01:45:31.652Z,29.83
2018-01-23T01:47:59.148Z,47.60
2018-01-23T01:50:26.687Z,37.30
2018-01-23T01:52:54.207Z,30.20
2018-01-23T01:55:21.790Z,37.38
2018-01-23T01:57:49.306Z,29.20
2018-01-23T02:00:16.972Z,24.90
2018-01-23T02:02:44.489Z,31.60
2018-01-23T02:05:12.033Z,36.08
2018-01-23T02:07:39.562Z,39.92
2018-01-23T02:10:07.106Z,35.33
2018-01-23T02:12:34.647Z,42.45
2018-01-23T02:15:03.062Z,47.35
2018-01-23T02:17:30.835Z,42.33
2018-01-23T02:19:58.399Z,31.12
2018-01-23T02:22:25.960Z,34.60
2018-01-23T02:24:53.512Z,36.13
2018-01-23T02:27:21.047Z,37.63
2018-01-23T02:29:48.610Z,37.05
2018-01-23T02:32:16.199Z,31.35
2018-01-23T02:34:43.742Z,45.38
2018-01-23T02:37:11.280Z,37.05
2018-01-23T02:39:38.903Z,31.45
2018-01-23T02:42:06.452Z,33.83
2018-01-23T02:44:33.957Z,36.80
2018-01-23T02:47:02.343Z,27.30
2018-01-23T02:49:30.014Z,37.90
2018-01-23T02:51:57.590Z,32.72
2018-01-23T02:54:26.066Z,30.70
2018-01-23T02:56:53.641Z,32.17
2018-01-23T02:59:21.177Z,33.55
2018-01-23T03:01:48.750Z,36.40
2018-01-23T03:04:16.308Z,35.05
2018-01-23T03:06:43.836Z,25.50
2018-01-23T03:09:11.417Z,26.70
2018-01-23T03:11:38.969Z,39.70
2018-01-23T03:14:07.305Z,25.48
2018-01-23T03:16:34.826Z,31.25
2018-01-23T03:19:02.349Z,24.55
2018-01-23T03:21:30.643Z,25.50
2018-01-23T03:23:58.408Z,22.85
2018-01-23T03:26:25.943Z,23.60
2018-01-23T03:28:54.251Z,27.73
2018-01-23T03:31:21.774Z,34.67
2018-01-23T03:33:50.063Z,22.65
2018-01-23T03:36:17.616Z,25.08
2018-01-23T03:38:45.935Z,28.23
2018-01-23T03:41:13.447Z,32.25
2018-01-23T03:43:41.796Z,30.02
2018-01-23T03:46:09.413Z,37.55
2018-01-23T03:48:37.072Z,30.62
2018-01-23T03:51:04.590Z,33.17
2018-01-23T03:53:32.121Z,21.75
2018-01-23T03:55:59.631Z,27.52
2018-01-23T03:58:27.936Z,32.10
2018-01-23T04:00:55.466Z,23.35
2018-01-23T04:03:23.787Z,25.58
2018-01-23T04:05:51.321Z,31.37
2018-01-23T04:08:18.857Z,16.30
2018-01-23T04:10:47.148Z,22.73
2018-01-23T04:13:14.706Z,30.77
2018-01-23T04:15:42.220Z,22.00
2018-01-23T04:18:09.823Z,29.08
2018-01-23T04:20:37.331Z,22.42
2018-01-23T04:23:04.863Z,23.77
2018-01-23T04:25:32.645Z,22.23
2018-01-23T04:28:00.267Z,19.73
2018-01-23T04:30:27.818Z,18.08
2018-01-23T04:32:56.099Z,23.45
2018-01-23T04:35:24.402Z,19.67
2018-01-23T04:37:51.927Z,21.60
2018-01-23T04:40:20.306Z,20.30
2018-01-23T04:42:48.622Z,20.02
2018-01-23T04:45:16.127Z,24.33
2018-01-23T04:47:44.446Z,26.17
2018-01-23T04:50:11.991Z,22.37
2018-01-23T04:52:39.536Z,26.17
2018-01-23T04:55:07.811Z,20.35
2018-01-23T04:57:36.122Z,17.08
2018-01-23T05:00:03.634Z,20.15
2018-01-23T05:02:31.959Z,15.50
2018-01-23T05:04:59.497Z,20.95
2018-01-23T05:07:27.075Z,23.42
2018-01-23T05:09:56.124Z,17.05
2018-01-23T05:12:24.446Z,19.30
2018-01-23T05:14:51.962Z,19.98
2018-01-23T05:17:20.381Z,24.55
2018-01-23T05:19:47.923Z,23.23
2018-01-23T05:22:15.499Z,29.85
2018-01-23T05:24:43.035Z,25.02
2018-01-23T05:27:14.220Z,29.65
2018-01-23T05:29:42.022Z,28.77
2018-01-23T05:32:09.592Z,24.40
2018-01-23T05:34:37.899Z,20.85
2018-01-23T05:37:05.547Z,20.02
2018-01-23T05:39:33.059Z,20.42
2018-01-23T05:42:00.623Z,22.83
2018-01-23T05:44:28.114Z,25.85
2018-01-23T05:46:56.390Z,19.67
2018-01-23T05:49:26.666Z,19.80
2018-01-23T05:51:54.927Z,23.25
2018-01-23T05:54:22.437Z,24.77
2018-01-23T05:56:50.849Z,23.48
2018-01-23T05:59:18.365Z,21.55
2018-01-23T06:01:45.910Z,22.25
2018-01-23T06:04:13.455Z,24.95
2018-01-23T06:06:41.197Z,23.05
2018-01-23T06:09:08.856Z,19.87
2018-01-23T06:11:36.426Z,23.65
2018-01-23T06:14:03.972Z,23.00
2018-01-23T06:16:31.517Z,17.70
2018-01-23T06:18:59.095Z,27.33
2018-01-23T06:21:26.619Z,22.58
2018-01-23T06:23:54.952Z,23.92
2018-01-23T06:26:22.500Z,26.15
2018-01-23T06:28:50.024Z,26.42
2018-01-23T06:31:17.541Z,20.70
2018-01-23T06:33:45.079Z,19.60
2018-01-23T06:36:12.820Z,20.92
2018-01-23T06:38:40.368Z,26.83
2018-01-23T06:41:07.906Z,31.70
2018-01-23T06:43:35.555Z,22.20
2018-01-23T06:46:03.163Z,26.25
2018-01-23T06:48:30.671Z,25.90
2018-01-23T06:50:58.272Z,24.90
2018-01-23T06:53:27.451Z,29.58
2018-01-23T06:55:55.770Z,24.42
2018-01-23T06:58:23.277Z,25.10
2018-01-23T07:00:51.603Z,24.05
2018-01-23T07:03:19.201Z,25.40
2018-01-23T07:05:46.921Z,28.23
2018-01-23T07:08:14.448Z,22.80
2018-01-23T07:10:42.748Z,22.45
2018-01-23T07:13:10.247Z,32.53
2018-01-23T07:15:37.971Z,23.73
2018-01-23T07:18:05.531Z,28.73
2018-01-23T07:20:33.088Z,24.20
2018-01-23T07:23:00.648Z,16.58
2018-01-23T07:25:28.191Z,20.20
2018-01-23T07:27:56.489Z,19.92
2018-01-23T07:30:24.045Z,23.02
2018-01-23T07:32:51.570Z,19.70
2018-01-23T07:35:19.976Z,18.30
2018-01-23T07:37:47.552Z,25.73
2018-01-23T07:40:15.811Z,29.70
2018-01-23T07:42:43.385Z,26.95
2018-01-23T07:45:11.050Z,18.15
2018-01-23T07:47:38.579Z,23.95
2018-01-23T07:50:06.160Z,19.85
2018-01-23T07:52:33.664Z,23.30
2018-01-23T07:55:01.190Z,20.77
2018-01-23T07:57:28.711Z,23.40
2018-01-23T07:59:57.001Z,21.30
2018-01-23T08:02:24.574Z,20.37
2018-01-23T08:04:52.114Z,17.77
2018-01-23T08:07:19.687Z,16.23
2018-01-23T08:09:47.221Z,20.85
2018-01-23T08:12:15.531Z,29.42
2018-01-23T08:14:43.042Z,24.63
2018-01-23T08:17:10.596Z,27.40
2018-01-23T08:19:38.104Z,20.33
2018-01-23T08:22:05.705Z,14.63
2018-01-23T08:24:33.317Z,21.33
2018-01-23T08:27:00.890Z,23.42
2018-01-23T08:29:28.485Z,19.50
2018-01-23T08:31:56.088Z,17.85
2018-01-23T08:34:23.640Z,17.12
2018-01-23T08:36:51.963Z,16.90
2018-01-23T08:39:19.466Z,15.63
2018-01-23T08:41:47.812Z,19.95
2018-01-23T08:44:25.235Z,15.95
2018-01-23T08:46:53.564Z,16.83
2018-01-23T08:49:21.125Z,17.23
2018-01-23T08:51:48.638Z,17.48
2018-01-23T08:54:16.906Z,14.35
2018-01-23T08:56:45.303Z,15.45
2018-01-23T08:59:12.817Z,20.92
2018-01-23T09:01:40.537Z,22.55
2018-01-23T09:04:08.038Z,17.30
2018-01-23T09:06:36.434Z,18.65
2018-01-23T09:09:04.707Z,16.10
2018-01-23T09:11:32.245Z,15.35
2018-01-23T09:13:59.758Z,12.30
2018-01-23T09:16:27.324Z,9.50
2018-01-23T09:18:54.818Z,12.93
2018-01-23T09:21:23.172Z,18.02
2018-01-23T09:23:50.715Z,22.73
2018-01-23T09:26:18.247Z,16.45
2018-01-23T09:28:46.559Z,14.13
2018-01-23T09:31:14.094Z,16.00
2018-01-23T09:33:42.352Z,17.20
2018-01-23T09:36:09.925Z,16.52
2018-01-23T09:38:38.231Z,19.42
2018-01-23T09:41:05.809Z,14.77
2018-01-23T09:43:33.371Z,16.92
2018-01-23T09:46:00.918Z,13.20
2018-01-23T09:48:28.444Z,12.07
2018-01-23T09:50:56.755Z,16.52
2018-01-23T09:53:24.292Z,17.02
2018-01-23T09:55:51.876Z,15.05
2018-01-23T09:58:19.439Z,16.55
2018-01-23T10:00:47.079Z,17.15
2018-01-23T10:03:14.595Z,10.25
2018-01-23T10:05:42.145Z,15.55
2018-01-23T10:08:09.645Z,21.52
2018-01-23T10:10:37.221Z,14.75
2018-01-23T10:13:04.776Z,13.00
2018-01-23T10:15:33.048Z,15.30
2018-01-23T10:18:00.581Z,13.30
2018-01-23T10:20:28.885Z,13.45
2018-01-23T10:22:56.397Z,17.62
2018-01-23T10:25:23.997Z,14.18
2018-01-23T10:27:51.512Z,15.48
2018-01-23T10:30:19.055Z,17.12
2018-01-23T10:32:46.560Z,11.20
2018-01-23T10:35:14.903Z,16.12
2018-01-23T10:37:42.404Z,19.23
2018-01-23T10:40:09.966Z,14.48
2018-01-23T10:42:37.471Z,16.30
2018-01-23T10:45:05.019Z,14.75
2018-01-23T10:47:32.555Z,11.45
2018-01-23T10:50:00.118Z,14.10
2018-01-23T10:52:27.674Z,10.65
2018-01-23T10:54:55.334Z,13.70
2018-01-23T10:57:22.857Z,25.85
2018-01-23T10:59:51.195Z,20.30
2018-01-23T11:02:18.734Z,18.77
2018-01-23T11:04:46.282Z,17.65
2018-01-23T11:07:13.888Z,13.80
2018-01-23T11:09:41.479Z,14.35
2018-01-23T11:12:09.767Z,12.90
2018-01-23T11:14:38.117Z,13.48
2018-01-23T11:17:05.650Z,15.15
2018-01-23T11:19:33.200Z,18.48
2018-01-23T11:22:00.718Z,7.25
2018-01-23T11:24:29.038Z,17.33
2018-01-23T11:26:56.619Z,15.93
2018-01-23T11:29:24.188Z,12.30
2018-01-23T11:31:51.798Z,17.37
2018-01-23T11:34:19.614Z,8.93
2018-01-23T11:36:47.919Z,11.55
2018-01-23T11:39:16.563Z,13.68
2018-01-23T11:41:44.104Z,21.67
2018-01-23T11:44:11.646Z,13.57
2018-01-23T11:46:39.142Z,13.80
2018-01-23T11:49:06.772Z,13.80
2018-01-23T11:51:34.335Z,11.73
2018-01-23T11:54:01.799Z,13.10
2018-01-23T11:56:29.666Z,9.55
2018-01-23T11:58:57.208Z,11.52
2018-01-23T12:01:24.698Z,7.05
2018-01-23T12:03:52.263Z,10.40
2018-01-23T12:06:19.828Z,10.15
2018-01-23T12:08:47.347Z,13.15
2018-01-23T12:11:14.878Z,9.27
2018-01-23T12:13:43.160Z,11.00
2018-01-23T12:16:10.724Z,11.20
2018-01-23T12:21:12.332Z,9.95
2018-01-23T12:23:39.850Z,11.02
2018-01-23T12:26:08.389Z,8.73
2018-01-23T12:28:35.891Z,8.85
2018-01-23T12:31:03.498Z,9.25
2018-01-23T12:33:31.014Z,7.12
2018-01-23T12:35:58.595Z,8.95
2018-01-23T12:38:26.098Z,15.55
2018-01-23T12:40:53.640Z,9.82
2018-01-23T12:43:21.158Z,17.48
2018-01-23T12:45:48.724Z,8.70
2018-01-23T12:48:16.259Z,17.83
2018-01-23T12:50:44.561Z,10.90
2018-01-23T12:53:12.087Z,8.75
2018-01-23T12:55:40.510Z,10.27
2018-01-23T12:58:08.026Z,10.13
2018-01-23T13:00:36.436Z,9.40
2018-01-23T13:03:05.013Z,11.70
2018-01-23T13:05:32.538Z,9.63
2018-01-23T13:08:00.815Z,10.35
2018-01-23T13:10:29.122Z,8.35
2018-01-23T13:12:56.642Z,10.50
2018-01-23T13:15:24.157Z,10.93
2018-01-23T13:17:51.651Z,12.00
2018-01-23T13:20:19.183Z,11.48
2018-01-23T13:22:46.776Z,8.68
2018-01-23T13:25:14.302Z,9.73
2018-01-23T13:27:41.817Z,7.62
2018-01-23T13:30:10.205Z,10.75
2018-01-23T13:32:37.715Z,8.82
2018-01-23T13:35:05.218Z,9.43
2018-01-23T13:37:32.740Z,6.75
2018-01-23T13:40:00.256Z,10.27
2018-01-23T13:42:27.845Z,10.52
2018-01-23T13:44:55.407Z,6.32
2018-01-23T13:47:22.940Z,7.32
2018-01-23T13:49:50.485Z,10.73
2018-01-23T13:52:17.999Z,6.45
2018-01-23T13:54:45.575Z,7.57
2018-01-23T13:57:13.871Z,9.05
2018-01-23T13:59:41.409Z,7.03
2018-01-23T14:02:09.704Z,12.10
2018-01-23T14:04:38.034Z,11.55
2018-01-23T14:07:05.755Z,8.70
2018-01-23T14:09:34.113Z,5.53
2018-01-23T14:12:02.425Z,7.10
2018-01-23T14:14:40.695Z,6.40
2018-01-23T14:17:09.012Z,7.35
2018-01-23T14:19:36.536Z,12.60
2018-01-23T14:22:04.931Z,7.00
2018-01-23T14:24:32.443Z,8.32
2018-01-23T14:27:00.066Z,6.10
2018-01-23T14:29:27.638Z,8.15
2018-01-23T14:31:55.180Z,8.75
2018-01-23T14:34:22.745Z,11.60
2018-01-23T14:36:50.345Z,5.45
2018-01-23T14:39:17.907Z,7.82
2018-01-23T14:41:45.626Z,7.22
2018-01-23T14:44:13.124Z,7.53
2018-01-23T14:46:40.653Z,7.10
2018-01-23T14:49:08.171Z,7.78
2018-01-23T14:51:36.565Z,7.18
2018-01-23T14:54:04.090Z,10.73
2018-01-23T14:56:31.684Z,9.45
2018-01-23T14:58:59.178Z,8.70
2018-01-23T15:01:26.799Z,11.25
2018-01-23T15:03:55.627Z,9.05
2018-01-23T15:06:23.151Z,10.63
2018-01-23T15:08:50.674Z,7.62
2018-01-23T15:11:18.310Z,10.90
2018-01-23T15:13:45.840Z,9.75
2018-01-23T15:16:13.380Z,7.22
2018-01-23T15:18:41.713Z,6.95
2018-01-23T15:21:09.229Z,8.60
2018-01-23T15:23:36.798Z,6.28
2018-01-23T15:26:04.336Z,13.45
2018-01-23T15:28:31.899Z,10.27
2018-01-23T15:30:59.411Z,9.35
2018-01-23T15:33:27.035Z,6.22
2018-01-23T15:35:54.671Z,5.03
2018-01-23T15:38:22.940Z,7.87
2018-01-23T15:40:51.238Z,3.70
2018-01-23T15:43:18.807Z,7.55
2018-01-23T15:45:46.573Z,8.88
2018-01-23T15:48:14.132Z,7.05
2018-01-23T15:50:41.672Z,11.68
2018-01-23T15:53:10.022Z,7.22
2018-01-23T15:55:37.639Z,14.02
2018-01-23T15:58:05.139Z,5.07
2018-01-23T16:00:32.711Z,6.55
2018-01-23T16:03:01.027Z,10.35
2018-01-23T16:05:28.592Z,11.18
2018-01-23T16:07:56.108Z,8.48
2018-01-23T16:10:24.418Z,4.50
2018-01-23T16:12:51.931Z,8.40
2018-01-23T16:15:19.623Z,9.10
2018-01-23T16:17:47.890Z,11.27
2018-01-23T16:20:16.226Z,9.65
2018-01-23T16:22:43.748Z,9.98
2018-01-23T16:25:11.267Z,12.05
2018-01-23T16:27:38.813Z,11.80
2018-01-23T16:30:07.230Z,8.77
2018-01-23T16:32:35.729Z,9.57
2018-01-23T16:35:03.250Z,7.32
2018-01-23T16:37:32.593Z,6.50
2018-01-23T16:40:00.128Z,7.95
2018-01-23T16:42:28.395Z,13.70
2018-01-23T16:44:56.697Z,7.75
2018-01-23T16:47:24.238Z,9.90
2018-01-23T16:49:51.864Z,7.72
2018-01-23T16:52:20.270Z,10.18
2018-01-23T16:54:48.581Z,10.77
2018-01-23T16:57:19.147Z,8.23
2018-01-23T16:59:46.703Z,8.57
2018-01-23T17:02:14.229Z,5.62
2018-01-23T17:04:41.803Z,10.15
2018-01-23T17:07:09.322Z,7.60
2018-01-23T17:09:36.908Z,7.28
2018-01-23T17:12:04.475Z,4.10
2018-01-23T17:14:32.946Z,7.70
2018-01-23T17:17:00.482Z,7.80
2018-01-23T17:19:28.776Z,8.85
2018-01-23T17:21:56.318Z,7.03
2018-01-23T17:24:24.608Z,6.85
2018-01-23T17:26:52.143Z,11.30
2018-01-23T17:29:20.437Z,8.60
2018-01-23T17:31:48.041Z,9.73
2018-01-23T17:34:15.684Z,5.45
2018-01-23T17:36:45.690Z,15.88
2018-01-23T17:39:13.182Z,6.82
2018-01-23T17:41:42.291Z,6.65
2018-01-23T17:44:10.614Z,8.48
2018-01-23T17:46:39.066Z,10.82
2018-01-23T17:49:07.409Z,6.32
2018-01-23T17:51:35.026Z,12.65
2018-01-23T17:54:02.647Z,4.85
2018-01-23T17:56:31.074Z,7.72
2018-01-23T17:58:58.577Z,7.68
2018-01-23T18:01:26.155Z,9.07
2018-01-23T18:03:53.739Z,8.23
2018-01-23T18:06:21.266Z,8.93
2018-01-23T18:08:48.826Z,3.95
2018-01-23T18:11:16.360Z,6.15
2018-01-23T18:13:43.900Z,7.80
2018-01-23T18:16:11.484Z,8.27
2018-01-23T18:18:39.090Z,7.25
2018-01-23T18:21:07.474Z,9.55
2018-01-23T18:23:34.999Z,10.98
2018-01-23T18:26:02.669Z,5.15
2018-01-23T18:28:30.254Z,6.35
2018-01-23T18:30:58.685Z,7.15
2018-01-23T18:33:26.362Z,7.43
2018-01-23T18:35:54.672Z,6.72
2018-01-23T18:38:22.251Z,6.43
2018-01-23T18:40:49.813Z,4.93
2018-01-23T18:43:17.359Z,6.68
2018-01-23T18:45:44.911Z,5.87
2018-01-23T18:48:12.566Z,4.95
2018-01-23T18:50:40.883Z,4.90
2018-01-23T18:53:08.463Z,5.45
2018-01-23T18:55:35.963Z,4.15
2018-01-23T18:58:04.282Z,9.35
2018-01-23T19:00:31.796Z,5.90
2018-01-23T19:03:00.120Z,7.32
2018-01-23T19:05:27.627Z,3.75
2018-01-23T19:07:55.930Z,4.12
2018-01-23T19:10:23.569Z,7.60
2018-01-23T19:12:51.864Z,6.28
2018-01-23T19:15:19.404Z,6.10
2018-01-23T19:17:47.723Z,4.00
2018-01-23T19:20:15.356Z,4.68
2018-01-23T19:22:42.900Z,6.05
2018-01-23T19:25:11.219Z,11.18
2018-01-23T19:27:38.866Z,9.20
2018-01-23T19:30:06.407Z,9.25
2018-01-23T19:32:34.744Z,6.07
2018-01-23T19:35:02.460Z,9.10
2018-01-23T19:37:31.705Z,5.30
2018-01-23T19:39:59.355Z,5.90
2018-01-23T19:42:27.034Z,8.50
2018-01-23T19:44:55.920Z,5.53
2018-01-23T19:47:23.612Z,9.85
2018-01-23T19:49:51.195Z,4.80
2018-01-23T19:52:18.751Z,7.07
2018-01-23T19:54:46.418Z,10.32
2018-01-23T19:57:14.242Z,7.25
2018-01-23T19:59:43.970Z,7.37
2018-01-23T20:02:12.307Z,4.30
2018-01-23T20:04:39.944Z,5.80
2018-01-23T20:07:07.501Z,6.70
2018-01-23T20:09:35.281Z,5.93
2018-01-23T20:12:02.902Z,6.45
2018-01-23T20:14:30.466Z,9.70
2018-01-23T20:16:58.016Z,9.13
2018-01-23T20:19:26.329Z,4.68
2018-01-23T20:21:53.951Z,8.88
2018-01-23T20:24:22.816Z,7.00
2018-01-23T20:26:50.458Z,5.25
2018-01-23T20:29:17.990Z,2.90
2018-01-23T20:31:45.516Z,7.30
2018-01-23T20:34:13.804Z,5.93
2018-01-23T20:36:42.187Z,9.02
2018-01-23T20:39:09.739Z,6.80
2018-01-23T20:41:37.347Z,4.60
2018-01-23T20:44:04.981Z,4.80
2018-01-23T20:46:32.492Z,5.47
2018-01-23T20:49:00.053Z,4.22
2018-01-23T20:51:27.643Z,6.95
2018-01-23T20:53:55.233Z,7.22
2018-01-23T20:56:22.744Z,2.97
2018-01-23T20:58:51.056Z,4.28
2018-01-23T21:01:18.603Z,3.25
2018-01-23T21:03:46.167Z,3.97
2018-01-23T21:06:13.717Z,4.53
2018-01-23T21:08:41.332Z,3.20
2018-01-23T21:11:08.880Z,4.65
2018-01-23T21:13:36.410Z,7.07
2018-01-23T21:16:03.911Z,5.80
2018-01-23T21:18:31.460Z,3.58
2018-01-23T21:20:59.100Z,2.45
2018-01-23T21:23:26.860Z,2.58
2018-01-23T21:25:54.373Z,2.22
2018-01-23T21:28:22.747Z,3.62
2018-01-23T21:30:50.298Z,2.55
2018-01-23T21:33:17.922Z,5.15
2018-01-23T21:35:45.477Z,3.35
2018-01-23T21:38:13.134Z,4.10
2018-01-23T21:40:40.647Z,5.40
2018-01-23T21:43:08.249Z,6.72
2018-01-23T21:45:35.832Z,5.30
2018-01-23T21:48:03.412Z,3.03
2018-01-23T21:50:30.947Z,5.65
2018-01-23T21:52:58.617Z,2.83
2018-01-23T21:55:26.157Z,2.75
2018-01-23T21:57:53.732Z,2.92
2018-01-23T22:00:21.381Z,3.30
2018-01-23T22:02:48.902Z,2.50
2018-01-23T22:05:17.300Z,3.85
2018-01-23T22:07:44.796Z,3.20
2018-01-23T22:10:12.437Z,4.72
2018-01-23T22:12:40.698Z,4.00
2018-01-23T22:15:08.668Z,4.35
2018-01-23T22:17:40.476Z,3.90
2018-01-23T22:20:08.002Z,4.25
2018-01-23T22:22:35.598Z,6.12
2018-01-23T22:25:03.207Z,3.35
2018-01-23T22:27:30.768Z,2.62
2018-01-23T22:29:58.331Z,3.20
2018-01-23T22:32:25.864Z,3.35
2018-01-23T22:34:54.259Z,3.28
2018-01-23T22:37:21.773Z,2.17
2018-01-23T22:39:49.370Z,2.20
2018-01-23T22:42:17.646Z,2.37
2018-01-23T22:44:46.002Z,3.05
2018-01-23T22:47:13.567Z,3.60
2018-01-23T22:49:42.020Z,5.30
2018-01-23T22:52:09.563Z,2.40
2018-01-23T22:54:37.111Z,1.58
2018-01-23T22:57:04.615Z,2.12
2018-01-23T22:59:32.916Z,2.10
2018-01-23T23:02:01.174Z,3.28
2018-01-23T23:04:28.730Z,3.55
2018-01-23T23:06:57.029Z,2.33
2018-01-23T23:09:25.296Z,3.58
2018-01-23T23:11:53.620Z,2.40
2018-01-23T23:14:21.150Z,6.15
2018-01-23T23:16:48.756Z,2.30
2018-01-23T23:19:16.240Z,2.80
2018-01-23T23:21:44.540Z,2.85
2018-01-23T23:24:13.102Z,0.93
2018-01-23T23:26:41.425Z,1.20
2018-01-23T23:29:09.694Z,0.90
2018-01-23T23:31:37.252Z,0.80
2018-01-23T23:34:04.788Z,0.75
2018-01-23T23:36:33.175Z,0.82
2018-01-23T23:39:00.751Z,0.90
2018-01-23T23:41:28.298Z,1.10
2018-01-23T23:43:55.818Z,1.33
2018-01-23T23:46:23.307Z,1.20
2018-01-23T23:48:50.861Z,0.90
2018-01-23T23:51:18.425Z,2.17
2018-01-23T23:53:46.717Z,1.00
2018-01-23T23:56:14.218Z,2.90
2018-01-23T23:58:41.825Z,1.33
